sensor_id;sensor_type;location;lat;lon;timestamp;pressure;altitude;pressure_sealevel;temperature;humidity
63321;BME280;49449;48.800;9.534;2023-01-29T00:01:29;99656.56;;;2.96;38.23
63321;BME280;49449;48.800;9.534;2023-01-29T00:03:56;99651.34;;;2.96;38.22
63321;BME280;49449;48.800;9.534;2023-01-29T00:06:26;99648.75;;;2.96;38.48
63321;BME280;49449;48.800;9.534;2023-01-29T00:08:54;99652.47;;;2.94;38.45
63321;BME280;49449;48.800;9.534;2023-01-29T00:11:21;99649.03;;;2.93;38.50
63321;BME280;49449;48.800;9.534;2023-01-29T00:13:51;99651.78;;;2.92;38.81
63321;BME280;49449;48.800;9.534;2023-01-29T00:16:19;99656.72;;;2.95;38.73
63321;BME280;49449;48.800;9.534;2023-01-29T00:18:47;99661.78;;;2.96;37.90
63321;BME280;49449;48.800;9.534;2023-01-29T00:21:16;99652.31;;;2.95;37.89
63321;BME280;49449;48.800;9.534;2023-01-29T00:23:45;99662.75;;;2.95;38.16
63321;BME280;49449;48.800;9.534;2023-01-29T00:26:13;99652.78;;;2.91;37.85
63321;BME280;49449;48.800;9.534;2023-01-29T00:28:41;99652.13;;;2.89;38.36
63321;BME280;49449;48.800;9.534;2023-01-29T00:31:10;99653.88;;;2.88;38.29
63321;BME280;49449;48.800;9.534;2023-01-29T00:33:38;99655.00;;;2.85;38.76
63321;BME280;49449;48.800;9.534;2023-01-29T00:36:08;99651.75;;;2.83;38.17
63321;BME280;49449;48.800;9.534;2023-01-29T00:38:37;99649.28;;;2.82;38.36
63321;BME280;49449;48.800;9.534;2023-01-29T00:41:07;99650.09;;;2.82;38.45
63321;BME280;49449;48.800;9.534;2023-01-29T00:43:52;99649.41;;;2.80;38.92
63321;BME280;49449;48.800;9.534;2023-01-29T00:46:38;99654.63;;;2.80;38.49
63321;BME280;49449;48.800;9.534;2023-01-29T00:49:07;99653.97;;;2.78;38.67
63321;BME280;49449;48.800;9.534;2023-01-29T00:51:36;99649.72;;;2.77;39.82
63321;BME280;49449;48.800;9.534;2023-01-29T00:54:04;99646.13;;;2.78;39.62
63321;BME280;49449;48.800;9.534;2023-01-29T00:56:42;99648.59;;;2.80;37.98
63321;BME280;49449;48.800;9.534;2023-01-29T00:59:09;99641.88;;;2.77;39.56
63321;BME280;49449;48.800;9.534;2023-01-29T01:01:37;99650.56;;;2.78;39.98
63321;BME280;49449;48.800;9.534;2023-01-29T01:04:23;99643.69;;;2.77;40.71
63321;BME280;49449;48.800;9.534;2023-01-29T01:06:50;99648.91;;;2.77;38.93
63321;BME280;49449;48.800;9.534;2023-01-29T01:09:18;99648.09;;;2.76;39.58
63321;BME280;49449;48.800;9.534;2023-01-29T01:12:05;99646.56;;;2.74;39.83
63321;BME280;49449;48.800;9.534;2023-01-29T01:14:33;99645.25;;;2.70;39.29
63321;BME280;49449;48.800;9.534;2023-01-29T01:17:01;99643.31;;;2.72;39.21
63321;BME280;49449;48.800;9.534;2023-01-29T01:19:29;99636.13;;;2.74;39.37
63321;BME280;49449;48.800;9.534;2023-01-29T01:21:57;99637.66;;;2.76;39.25
63321;BME280;49449;48.800;9.534;2023-01-29T01:24:24;99634.19;;;2.76;38.80
63321;BME280;49449;48.800;9.534;2023-01-29T01:26:52;99632.56;;;2.75;39.47
63321;BME280;49449;48.800;9.534;2023-01-29T01:29:21;99630.47;;;2.78;39.07
63321;BME280;49449;48.800;9.534;2023-01-29T01:31:51;99629.66;;;2.78;38.96
63321;BME280;49449;48.800;9.534;2023-01-29T01:34:19;99634.81;;;2.70;38.77
63321;BME280;49449;48.800;9.534;2023-01-29T01:36:47;99632.19;;;2.70;38.49
63321;BME280;49449;48.800;9.534;2023-01-29T01:39:15;99631.91;;;2.73;38.73
63321;BME280;49449;48.800;9.534;2023-01-29T01:41:43;99635.63;;;2.70;39.38
63321;BME280;49449;48.800;9.534;2023-01-29T01:47:16;99634.13;;;2.67;39.77
63321;BME280;49449;48.800;9.534;2023-01-29T01:49:44;99629.88;;;2.66;39.46
63321;BME280;49449;48.800;9.534;2023-01-29T01:52:13;99628.91;;;2.67;39.27
63321;BME280;49449;48.800;9.534;2023-01-29T01:54:42;99625.13;;;2.62;39.21
63321;BME280;49449;48.800;9.534;2023-01-29T01:57:14;99633.31;;;2.67;39.15
63321;BME280;49449;48.800;9.534;2023-01-29T01:59:47;99627.94;;;2.68;38.54
63321;BME280;49449;48.800;9.534;2023-01-29T02:02:18;99629.06;;;2.66;38.72
63321;BME280;49449;48.800;9.534;2023-01-29T02:05:04;99629.88;;;2.66;38.79
63321;BME280;49449;48.800;9.534;2023-01-29T02:07:50;99621.25;;;2.66;38.28
63321;BME280;49449;48.800;9.534;2023-01-29T02:10:40;99629.88;;;2.66;38.59
63321;BME280;49449;48.800;9.534;2023-01-29T02:13:08;99633.63;;;2.64;38.95
63321;BME280;49449;48.800;9.534;2023-01-29T02:15:37;99633.75;;;2.62;39.17
63321;BME280;49449;48.800;9.534;2023-01-29T02:18:08;99633.75;;;2.62;39.12
63321;BME280;49449;48.800;9.534;2023-01-29T02:20:37;99644.19;;;2.62;39.21
63321;BME280;49449;48.800;9.534;2023-01-29T02:23:23;99638.97;;;2.62;39.37
63321;BME280;49449;48.800;9.534;2023-01-29T02:29:06;99635.56;;;2.62;39.00
63321;BME280;49449;48.800;9.534;2023-01-29T02:31:55;99649.94;;;2.66;39.14
63321;BME280;49449;48.800;9.534;2023-01-29T02:34:32;99640.84;;;2.70;39.46
63321;BME280;49449;48.800;9.534;2023-01-29T02:37:24;99648.00;;;2.68;39.12
63321;BME280;49449;48.800;9.534;2023-01-29T02:40:00;99637.03;;;2.64;38.93
63321;BME280;49449;48.800;9.534;2023-01-29T02:42:34;99635.91;;;2.67;39.57
63321;BME280;49449;48.800;9.534;2023-01-29T02:45:09;99642.94;;;2.66;37.73
63321;BME280;49449;48.800;9.534;2023-01-29T02:47:43;99642.13;;;2.66;38.53
63321;BME280;49449;48.800;9.534;2023-01-29T02:50:17;99644.72;;;2.66;39.03
63321;BME280;49449;48.800;9.534;2023-01-29T02:52:53;99638.84;;;2.64;38.82
63321;BME280;49449;48.800;9.534;2023-01-29T02:55:30;99637.84;;;2.65;38.51
63321;BME280;49449;48.800;9.534;2023-01-29T02:58:04;99642.94;;;2.66;38.51
63321;BME280;49449;48.800;9.534;2023-01-29T03:00:37;99633.47;;;2.65;38.79
63321;BME280;49449;48.800;9.534;2023-01-29T03:03:09;99637.03;;;2.64;38.00
63321;BME280;49449;48.800;9.534;2023-01-29T03:05:44;99631.81;;;2.64;36.78
63321;BME280;49449;48.800;9.534;2023-01-29T03:08:24;99634.28;;;2.66;37.65
63321;BME280;49449;48.800;9.534;2023-01-29T03:11:04;99629.88;;;2.66;36.91
63321;BME280;49449;48.800;9.534;2023-01-29T03:13:37;99627.28;;;2.66;37.48
63321;BME280;49449;48.800;9.534;2023-01-29T03:16:14;99630.69;;;2.67;37.80
63321;BME280;49449;48.800;9.534;2023-01-29T03:18:48;99629.59;;;2.70;37.51
63321;BME280;49449;48.800;9.534;2023-01-29T03:21:23;99629.88;;;2.66;38.40
63321;BME280;49449;48.800;9.534;2023-01-29T03:24:12;99622.19;;;2.65;38.25
63321;BME280;49449;48.800;9.534;2023-01-29T03:27:01;99626.75;;;2.63;38.74
63321;BME280;49449;48.800;9.534;2023-01-29T03:29:49;99628.84;;;2.59;38.66
63321;BME280;49449;48.800;9.534;2023-01-29T03:32:38;99623.09;;;2.56;38.56
63321;BME280;49449;48.800;9.534;2023-01-29T03:35:07;99618.84;;;2.55;38.28
63321;BME280;49449;48.800;9.534;2023-01-29T03:37:39;99640.06;;;2.42;36.94
63321;BME280;49449;48.800;9.534;2023-01-29T03:40:10;99634.94;;;2.32;38.91
63321;BME280;49449;48.800;9.534;2023-01-29T03:42:47;99631.59;;;2.40;39.26
63321;BME280;49449;48.800;9.534;2023-01-29T03:45:24;99624.94;;;2.45;39.13
63321;BME280;49449;48.800;9.534;2023-01-29T03:48:03;99625.47;;;2.49;39.27
63321;BME280;49449;48.800;9.534;2023-01-29T03:50:37;99628.47;;;2.54;39.32
63321;BME280;49449;48.800;9.534;2023-01-29T03:53:13;99628.31;;;2.56;39.17
63321;BME280;49449;48.800;9.534;2023-01-29T03:55:49;99632.56;;;2.57;38.95
63321;BME280;49449;48.800;9.534;2023-01-29T03:58:24;99631.44;;;2.59;39.42
63321;BME280;49449;48.800;9.534;2023-01-29T04:01:01;99634.06;;;2.59;38.89
63321;BME280;49449;48.800;9.534;2023-01-29T04:03:33;99635.72;;;2.60;38.83
63321;BME280;49449;48.800;9.534;2023-01-29T04:06:07;99632.13;;;2.61;39.37
63321;BME280;49449;48.800;9.534;2023-01-29T04:08:47;99638.31;;;2.60;39.48
63321;BME280;49449;48.800;9.534;2023-01-29T04:11:19;99639.28;;;2.59;40.70
63321;BME280;49449;48.800;9.534;2023-01-29T04:13:50;99639.94;;;2.61;40.59
63321;BME280;49449;48.800;9.534;2023-01-29T04:16:22;99642.69;;;2.60;40.52
63321;BME280;49449;48.800;9.534;2023-01-29T04:18:53;99640.94;;;2.60;39.82
63321;BME280;49449;48.800;9.534;2023-01-29T04:21:21;99640.78;;;2.62;41.09
63321;BME280;49449;48.800;9.534;2023-01-29T04:23:49;99638.31;;;2.60;39.95
63321;BME280;49449;48.800;9.534;2023-01-29T04:26:36;99641.75;;;2.61;41.18
63321;BME280;49449;48.800;9.534;2023-01-29T04:29:19;99652.47;;;2.58;40.54
63321;BME280;49449;48.800;9.534;2023-01-29T04:31:57;99649.72;;;2.59;40.94
63321;BME280;49449;48.800;9.534;2023-01-29T04:34:34;99645.47;;;2.58;40.52
63321;BME280;49449;48.800;9.534;2023-01-29T04:37:11;99645.31;;;2.60;41.07
63321;BME280;49449;48.800;9.534;2023-01-29T04:39:47;99640.09;;;2.60;40.09
63321;BME280;49449;48.800;9.534;2023-01-29T04:42:21;99650.84;;;2.57;39.57
63321;BME280;49449;48.800;9.534;2023-01-29T04:44:58;99638.75;;;2.56;40.20
63321;BME280;49449;48.800;9.534;2023-01-29T04:47:32;99636.28;;;2.54;39.65
63321;BME280;49449;48.800;9.534;2023-01-29T04:50:12;99639.31;;;2.32;37.54
63321;BME280;49449;48.800;9.534;2023-01-29T04:52:46;99638.31;;;2.15;38.18
63321;BME280;49449;48.800;9.534;2023-01-29T04:55:20;99637.41;;;2.06;38.40
63321;BME280;49449;48.800;9.534;2023-01-29T04:57:53;99627.84;;;1.97;38.81
63321;BME280;49449;48.800;9.534;2023-01-29T05:00:29;99643.44;;;2.06;38.92
63321;BME280;49449;48.800;9.534;2023-01-29T05:02:59;99643.41;;;2.16;39.71
63321;BME280;49449;48.800;9.534;2023-01-29T05:05:29;99647.34;;;2.20;40.58
63321;BME280;49449;48.800;9.534;2023-01-29T05:07:58;99641.84;;;2.23;41.03
63321;BME280;49449;48.800;9.534;2023-01-29T05:10:26;99645.66;;;2.29;39.71
63321;BME280;49449;48.800;9.534;2023-01-29T05:12:57;99647.13;;;2.32;39.63
63321;BME280;49449;48.800;9.534;2023-01-29T05:15:30;99654.00;;;2.33;39.49
63321;BME280;49449;48.800;9.534;2023-01-29T05:17:59;99649.47;;;2.35;39.58
63321;BME280;49449;48.800;9.534;2023-01-29T05:20:32;99652.59;;;2.38;39.60
63321;BME280;49449;48.800;9.534;2023-01-29T05:23:00;99648.75;;;2.42;39.79
63321;BME280;49449;48.800;9.534;2023-01-29T05:25:30;99649.31;;;2.36;39.39
63321;BME280;49449;48.800;9.534;2023-01-29T05:27:58;99640.69;;;2.36;40.19
63321;BME280;49449;48.800;9.534;2023-01-29T05:30:32;99641.34;;;2.38;39.93
63321;BME280;49449;48.800;9.534;2023-01-29T05:33:01;99653.41;;;2.39;40.88
63321;BME280;49449;48.800;9.534;2023-01-29T05:35:30;99656.84;;;2.39;40.30
63321;BME280;49449;48.800;9.534;2023-01-29T05:37:58;99653.13;;;2.42;40.76
63321;BME280;49449;48.800;9.534;2023-01-29T05:40:26;99647.22;;;2.40;41.68
63321;BME280;49449;48.800;9.534;2023-01-29T05:42:54;99646.81;;;2.44;40.06
63321;BME280;49449;48.800;9.534;2023-01-29T05:45:21;99648.44;;;2.45;39.99
63321;BME280;49449;48.800;9.534;2023-01-29T05:47:49;99642.50;;;2.25;37.93
63321;BME280;49449;48.800;9.534;2023-01-29T05:50:17;99644.06;;;2.18;38.54
63321;BME280;49449;48.800;9.534;2023-01-29T05:52:46;99646.03;;;2.06;37.35
63321;BME280;49449;48.800;9.534;2023-01-29T05:55:14;99635.50;;;1.98;37.68
63321;BME280;49449;48.800;9.534;2023-01-29T05:57:42;99623.34;;;1.89;38.18
63321;BME280;49449;48.800;9.534;2023-01-29T06:00:10;99612.78;;;1.90;37.85
63321;BME280;49449;48.800;9.534;2023-01-29T06:02:38;99605.09;;;1.89;38.38
63321;BME280;49449;48.800;9.534;2023-01-29T06:05:07;99600.97;;;1.68;38.15
63321;BME280;49449;48.800;9.534;2023-01-29T06:07:35;99600.09;;;1.78;37.76
63321;BME280;49449;48.800;9.534;2023-01-29T06:10:08;99607.25;;;1.76;37.32
63321;BME280;49449;48.800;9.534;2023-01-29T06:12:36;99601.03;;;1.77;38.47
63321;BME280;49449;48.800;9.534;2023-01-29T06:15:05;99602.06;;;1.66;38.04
63321;BME280;49449;48.800;9.534;2023-01-29T06:17:33;99604.09;;;1.72;38.69
63321;BME280;49449;48.800;9.534;2023-01-29T06:20:00;99602.69;;;1.78;39.19
63321;BME280;49449;48.800;9.534;2023-01-29T06:22:28;99607.72;;;1.89;38.75
63321;BME280;49449;48.800;9.534;2023-01-29T06:24:56;99616.72;;;1.95;39.44
63321;BME280;49449;48.800;9.534;2023-01-29T06:27:25;99617.13;;;2.00;39.55
63321;BME280;49449;48.800;9.534;2023-01-29T06:29:53;99616.56;;;2.06;39.31
63321;BME280;49449;48.800;9.534;2023-01-29T06:32:20;99627.22;;;2.13;39.45
63321;BME280;49449;48.800;9.534;2023-01-29T06:34:48;99631.19;;;2.17;39.51
63321;BME280;49449;48.800;9.534;2023-01-29T06:37:16;99629.09;;;2.20;39.00
63321;BME280;49449;48.800;9.534;2023-01-29T06:39:44;99628.94;;;2.22;39.36
63321;BME280;49449;48.800;9.534;2023-01-29T06:42:11;99628.13;;;2.21;39.60
63321;BME280;49449;48.800;9.534;2023-01-29T06:44:40;99621.13;;;2.22;38.80
63321;BME280;49449;48.800;9.534;2023-01-29T06:47:08;99638.25;;;2.24;39.22
63321;BME280;49449;48.800;9.534;2023-01-29T06:49:36;99640.88;;;2.24;39.59
63321;BME280;49449;48.800;9.534;2023-01-29T06:52:04;99643.34;;;2.26;39.66
63321;BME280;49449;48.800;9.534;2023-01-29T06:54:31;99635.66;;;2.24;39.55
63321;BME280;49449;48.800;9.534;2023-01-29T06:56:59;99628.25;;;2.02;37.53
63321;BME280;49449;48.800;9.534;2023-01-29T06:59:27;99625.25;;;1.97;39.92
63321;BME280;49449;48.800;9.534;2023-01-29T07:01:56;99633.81;;;2.07;39.15
63321;BME280;49449;48.800;9.534;2023-01-29T07:04:24;99644.78;;;2.10;39.89
63321;BME280;49449;48.800;9.534;2023-01-29T07:06:52;99653.00;;;2.16;39.62
63321;BME280;49449;48.800;9.534;2023-01-29T07:09:19;99657.09;;;2.18;39.99
63321;BME280;49449;48.800;9.534;2023-01-29T07:11:47;99654.50;;;2.18;39.21
63321;BME280;49449;48.800;9.534;2023-01-29T07:14:15;99657.53;;;2.14;38.83
63321;BME280;49449;48.800;9.534;2023-01-29T07:16:42;99655.28;;;1.91;40.45
63321;BME280;49449;48.800;9.534;2023-01-29T07:19:11;99654.53;;;1.81;41.98
63321;BME280;49449;48.800;9.534;2023-01-29T07:21:39;99656.69;;;1.85;44.52
63321;BME280;49449;48.800;9.534;2023-01-29T07:24:07;99653.84;;;1.79;39.77
63321;BME280;49449;48.800;9.534;2023-01-29T07:26:35;99652.69;;;1.63;38.62
63321;BME280;49449;48.800;9.534;2023-01-29T07:29:03;99652.00;;;1.51;39.25
63321;BME280;49449;48.800;9.534;2023-01-29T07:31:31;99658.16;;;1.60;37.59
63321;BME280;49449;48.800;9.534;2023-01-29T07:33:59;99664.59;;;1.66;38.55
63321;BME280;49449;48.800;9.534;2023-01-29T07:36:28;99664.44;;;1.77;38.32
63321;BME280;49449;48.800;9.534;2023-01-29T07:38:56;99665.03;;;1.61;38.35
63321;BME280;49449;48.800;9.534;2023-01-29T07:41:23;99666.13;;;1.59;38.28
63321;BME280;49449;48.800;9.534;2023-01-29T07:43:51;99665.84;;;1.62;38.27
63321;BME280;49449;48.800;9.534;2023-01-29T07:46:19;99666.53;;;1.54;39.54
63321;BME280;49449;48.800;9.534;2023-01-29T07:48:46;99670.72;;;1.75;40.05
63321;BME280;49449;48.800;9.534;2023-01-29T07:51:14;99673.00;;;1.87;40.05
63321;BME280;49449;48.800;9.534;2023-01-29T07:53:45;99681.75;;;1.96;39.79
63321;BME280;49449;48.800;9.534;2023-01-29T07:56:13;99688.88;;;2.04;39.06
63321;BME280;49449;48.800;9.534;2023-01-29T07:58:41;99676.91;;;2.11;38.62
63321;BME280;49449;48.800;9.534;2023-01-29T08:01:08;99682.50;;;2.16;37.85
63321;BME280;49449;48.800;9.534;2023-01-29T08:03:36;99690.03;;;2.19;38.64
63321;BME280;49449;48.800;9.534;2023-01-29T08:06:04;99687.13;;;2.22;38.60
63321;BME280;49449;48.800;9.534;2023-01-29T08:08:32;99677.38;;;2.24;38.26
63321;BME280;49449;48.800;9.534;2023-01-29T08:11:02;99683.13;;;2.28;38.19
63321;BME280;49449;48.800;9.534;2023-01-29T08:13:31;99676.00;;;2.30;37.55
63321;BME280;49449;48.800;9.534;2023-01-29T08:15:59;99680.09;;;2.33;37.94
63321;BME280;49449;48.800;9.534;2023-01-29T08:18:27;99678.16;;;2.35;37.45
63321;BME280;49449;48.800;9.534;2023-01-29T08:21:00;99681.44;;;2.37;36.98
63321;BME280;49449;48.800;9.534;2023-01-29T08:23:28;99676.88;;;2.39;37.36
63321;BME280;49449;48.800;9.534;2023-01-29T08:25:56;99680.84;;;2.43;37.60
63321;BME280;49449;48.800;9.534;2023-01-29T08:28:25;99685.25;;;2.42;37.20
63321;BME280;49449;48.800;9.534;2023-01-29T08:30:53;99691.28;;;2.43;37.65
63321;BME280;49449;48.800;9.534;2023-01-29T08:33:21;99701.44;;;2.46;37.81
63321;BME280;49449;48.800;9.534;2023-01-29T08:36:03;99705.00;;;2.45;37.98
63321;BME280;49449;48.800;9.534;2023-01-29T08:38:31;99704.06;;;2.46;38.03
63321;BME280;49449;48.800;9.534;2023-01-29T08:40:59;99705.69;;;2.47;38.08
63321;BME280;49449;48.800;9.534;2023-01-29T08:43:28;99704.19;;;2.44;37.66
63321;BME280;49449;48.800;9.534;2023-01-29T08:45:56;99708.13;;;2.48;37.41
63321;BME280;49449;48.800;9.534;2023-01-29T08:48:23;99699.50;;;2.48;37.00
63321;BME280;49449;48.800;9.534;2023-01-29T08:50:51;99700.94;;;2.33;36.84
63321;BME280;49449;48.800;9.534;2023-01-29T08:53:19;99712.44;;;2.40;36.96
63321;BME280;49449;48.800;9.534;2023-01-29T08:55:50;99719.84;;;2.44;37.18
63321;BME280;49449;48.800;9.534;2023-01-29T08:58:18;99722.31;;;2.46;36.71
63321;BME280;49449;48.800;9.534;2023-01-29T09:00:48;99718.56;;;2.48;36.96
63321;BME280;49449;48.800;9.534;2023-01-29T09:03:16;99722.84;;;2.49;36.63
63321;BME280;49449;48.800;9.534;2023-01-29T09:05:43;99728.06;;;2.49;38.36
63321;BME280;49449;48.800;9.534;2023-01-29T09:08:12;99715.16;;;2.48;36.49
63321;BME280;49449;48.800;9.534;2023-01-29T09:10:40;99717.75;;;2.48;36.21
63321;BME280;49449;48.800;9.534;2023-01-29T09:13:08;99719.09;;;2.24;35.95
63321;BME280;49449;48.800;9.534;2023-01-29T09:15:36;99721.16;;;2.30;36.73
63321;BME280;49449;48.800;9.534;2023-01-29T09:18:05;99725.47;;;2.12;35.92
63321;BME280;49449;48.800;9.534;2023-01-29T09:20:33;99726.59;;;2.00;36.75
63321;BME280;49449;48.800;9.534;2023-01-29T09:23:04;99732.88;;;2.17;36.40
63321;BME280;49449;48.800;9.534;2023-01-29T09:25:32;99721.09;;;2.13;35.94
63321;BME280;49449;48.800;9.534;2023-01-29T09:28:03;99721.44;;;1.90;35.67
63321;BME280;49449;48.800;9.534;2023-01-29T09:30:31;99725.66;;;1.91;36.46
63321;BME280;49449;48.800;9.534;2023-01-29T09:33:02;99726.19;;;2.04;36.64
63321;BME280;49449;48.800;9.534;2023-01-29T09:35:32;99732.44;;;2.21;37.32
63321;BME280;49449;48.800;9.534;2023-01-29T09:38:00;99738.41;;;2.32;37.02
63321;BME280;49449;48.800;9.534;2023-01-29T09:40:34;99724.53;;;2.41;36.79
63321;BME280;49449;48.800;9.534;2023-01-29T09:43:05;99727.34;;;2.47;36.83
63321;BME280;49449;48.800;9.534;2023-01-29T09:45:37;99730.88;;;2.56;36.95
63321;BME280;49449;48.800;9.534;2023-01-29T09:48:10;99730.16;;;2.64;36.41
63321;BME280;49449;48.800;9.534;2023-01-29T09:50:42;99718.75;;;2.65;35.12
63321;BME280;49449;48.800;9.534;2023-01-29T09:53:17;99715.41;;;2.27;35.47
63321;BME280;49449;48.800;9.534;2023-01-29T09:55:50;99707.56;;;2.27;35.67
63321;BME280;49449;48.800;9.534;2023-01-29T09:58:24;99707.63;;;2.45;36.09
63321;BME280;49449;48.800;9.534;2023-01-29T10:00:59;99707.13;;;2.59;35.69
63321;BME280;49449;48.800;9.534;2023-01-29T10:03:54;99701.00;;;2.68;35.65
63321;BME280;49449;48.800;9.534;2023-01-29T10:06:37;99679.69;;;2.73;36.47
63321;BME280;49449;48.800;9.534;2023-01-29T10:09:44;99672.09;;;2.62;36.92
63321;BME280;49449;48.800;9.534;2023-01-29T10:12:32;99661.72;;;2.70;35.61
63321;BME280;49449;48.800;9.534;2023-01-29T10:15:06;99655.03;;;2.67;39.96
63321;BME280;49449;48.800;9.534;2023-01-29T10:17:55;99655.81;;;2.68;34.60
63321;BME280;49449;48.800;9.534;2023-01-29T10:20:48;99644.34;;;2.79;34.87
63321;BME280;49449;48.800;9.534;2023-01-29T10:23:26;99644.63;;;2.76;33.88
63321;BME280;49449;48.800;9.534;2023-01-29T10:25:56;99636.06;;;2.83;35.10
63321;BME280;49449;48.800;9.534;2023-01-29T10:28:27;99645.47;;;2.94;35.02
63321;BME280;49449;48.800;9.534;2023-01-29T10:31:00;99654.03;;;3.04;35.64
63321;BME280;49449;48.800;9.534;2023-01-29T10:33:36;99651.66;;;3.11;35.91
63321;BME280;49449;48.800;9.534;2023-01-29T10:36:22;99656.75;;;3.21;34.81
63321;BME280;49449;48.800;9.534;2023-01-29T10:38:54;99665.13;;;3.24;36.76
63321;BME280;49449;48.800;9.534;2023-01-29T10:41:32;99669.38;;;3.25;36.18
63321;BME280;49449;48.800;9.534;2023-01-29T10:44:17;99665.78;;;3.27;36.81
63321;BME280;49449;48.800;9.534;2023-01-29T10:46:59;99655.72;;;3.32;35.67
63321;BME280;49449;48.800;9.534;2023-01-29T10:49:51;99647.75;;;3.33;32.79
63321;BME280;49449;48.800;9.534;2023-01-29T10:52:32;99647.19;;;3.30;33.89
63321;BME280;49449;48.800;9.534;2023-01-29T10:55:15;99645.53;;;3.29;34.23
63321;BME280;49449;48.800;9.534;2023-01-29T10:57:53;99642.56;;;3.23;35.56
63321;BME280;49449;48.800;9.534;2023-01-29T11:00:26;99645.13;;;3.33;35.31
63321;BME280;49449;48.800;9.534;2023-01-29T11:03:11;99651.53;;;3.39;37.93
63321;BME280;49449;48.800;9.534;2023-01-29T11:05:56;99647.97;;;3.40;34.85
63321;BME280;49449;48.800;9.534;2023-01-29T11:08:30;99646.81;;;3.42;37.14
63321;BME280;49449;48.800;9.534;2023-01-29T11:11:06;99644.53;;;3.39;37.64
63321;BME280;49449;48.800;9.534;2023-01-29T11:13:41;99644.69;;;3.38;36.53
63321;BME280;49449;48.800;9.534;2023-01-29T11:16:09;99641.28;;;3.46;35.77
63321;BME280;49449;48.800;9.534;2023-01-29T11:18:50;99635.41;;;3.43;36.84
63321;BME280;49449;48.800;9.534;2023-01-29T11:21:18;99634.91;;;3.48;35.54
63321;BME280;49449;48.800;9.534;2023-01-29T11:23:46;99628.88;;;3.48;35.55
63321;BME280;49449;48.800;9.534;2023-01-29T11:26:18;99629.50;;;3.41;33.09
63321;BME280;49449;48.800;9.534;2023-01-29T11:28:49;99635.94;;;3.29;35.18
63321;BME280;49449;48.800;9.534;2023-01-29T11:31:19;99639.91;;;3.33;35.86
63321;BME280;49449;48.800;9.534;2023-01-29T11:33:49;99638.81;;;3.44;36.16
63321;BME280;49449;48.800;9.534;2023-01-29T11:36:30;99629.88;;;3.47;34.28
63321;BME280;49449;48.800;9.534;2023-01-29T11:41:53;99614.34;;;3.45;37.11
63321;BME280;49449;48.800;9.534;2023-01-29T11:44:31;99614.34;;;3.45;37.74
63321;BME280;49449;48.800;9.534;2023-01-29T11:47:11;99612.75;;;3.52;36.03
63321;BME280;49449;48.800;9.534;2023-01-29T11:49:40;99609.94;;;3.46;33.95
63321;BME280;49449;48.800;9.534;2023-01-29T11:52:16;99609.06;;;3.37;34.58
63321;BME280;49449;48.800;9.534;2023-01-29T11:54:46;99609.13;;;3.45;35.03
63321;BME280;49449;48.800;9.534;2023-01-29T11:57:23;99614.84;;;3.49;35.50
63321;BME280;49449;48.800;9.534;2023-01-29T11:59:53;99603.41;;;3.50;37.41
63321;BME280;49449;48.800;9.534;2023-01-29T12:02:31;99612.09;;;3.50;37.47
63321;BME280;49449;48.800;9.534;2023-01-29T12:05:04;99599.69;;;3.52;37.57
63321;BME280;49449;48.800;9.534;2023-01-29T12:07:33;99584.81;;;3.53;38.93
63321;BME280;49449;48.800;9.534;2023-01-29T12:10:29;99590.00;;;3.44;37.84
63321;BME280;49449;48.800;9.534;2023-01-29T12:13:05;99576.78;;;3.46;37.56
63321;BME280;49449;48.800;9.534;2023-01-29T12:15:34;99560.59;;;3.42;36.09
63321;BME280;49449;48.800;9.534;2023-01-29T12:18:06;99559.31;;;3.47;36.33
63321;BME280;49449;48.800;9.534;2023-01-29T12:20:40;99554.63;;;3.58;35.06
63321;BME280;49449;48.800;9.534;2023-01-29T12:23:22;99537.69;;;3.62;36.23
63321;BME280;49449;48.800;9.534;2023-01-29T12:25:59;99529.19;;;3.69;37.02
63321;BME280;49449;48.800;9.534;2023-01-29T12:28:40;99520.56;;;3.85;35.99
63321;BME280;49449;48.800;9.534;2023-01-29T12:31:20;99518.00;;;3.93;35.14
63321;BME280;49449;48.800;9.534;2023-01-29T12:33:54;99511.16;;;4.16;37.08
63321;BME280;49449;48.800;9.534;2023-01-29T12:36:30;99507.91;;;4.23;36.09
63321;BME280;49449;48.800;9.534;2023-01-29T12:38:59;99500.38;;;4.03;31.86
63321;BME280;49449;48.800;9.534;2023-01-29T12:41:32;99506.16;;;3.72;33.29
63321;BME280;49449;48.800;9.534;2023-01-29T12:44:10;99501.81;;;3.89;34.06
63321;BME280;49449;48.800;9.534;2023-01-29T12:46:44;99495.56;;;3.74;32.30
63321;BME280;49449;48.800;9.534;2023-01-29T12:49:20;99487.38;;;3.69;31.84
63321;BME280;49449;48.800;9.534;2023-01-29T12:51:53;99484.44;;;3.72;31.69
63321;BME280;49449;48.800;9.534;2023-01-29T12:54:30;99484.97;;;3.41;32.73
63321;BME280;49449;48.800;9.534;2023-01-29T12:57:02;99477.03;;;3.51;31.80
63321;BME280;49449;48.800;9.534;2023-01-29T12:59:40;99477.25;;;3.74;35.80
63321;BME280;49449;48.800;9.534;2023-01-29T13:02:18;99468.94;;;3.87;34.47
63321;BME280;49449;48.800;9.534;2023-01-29T13:04:56;99469.47;;;3.98;36.44
63321;BME280;49449;48.800;9.534;2023-01-29T13:07:30;99476.97;;;3.93;33.01
63321;BME280;49449;48.800;9.534;2023-01-29T13:10:04;99474.19;;;3.78;32.66
63321;BME280;49449;48.800;9.534;2023-01-29T13:12:34;99466.28;;;3.62;32.59
63321;BME280;49449;48.800;9.534;2023-01-29T13:15:08;99465.66;;;3.68;33.68
63321;BME280;49449;48.800;9.534;2023-01-29T13:17:42;99458.16;;;3.81;33.08
63321;BME280;49449;48.800;9.534;2023-01-29T13:20:15;99448.78;;;3.54;32.45
63321;BME280;49449;48.800;9.534;2023-01-29T13:22:45;99458.63;;;3.69;33.49
63321;BME280;49449;48.800;9.534;2023-01-29T13:25:15;99454.25;;;3.86;35.70
63321;BME280;49449;48.800;9.534;2023-01-29T13:27:44;99463.41;;;3.98;35.64
63321;BME280;49449;48.800;9.534;2023-01-29T13:30:25;99456.53;;;3.97;37.02
63321;BME280;49449;48.800;9.534;2023-01-29T13:32:54;99457.88;;;4.09;37.40
63321;BME280;49449;48.800;9.534;2023-01-29T13:35:36;99465.88;;;4.08;38.13
63321;BME280;49449;48.800;9.534;2023-01-29T13:38:05;99456.22;;;4.16;37.98
63321;BME280;49449;48.800;9.534;2023-01-29T13:40:48;99456.56;;;4.22;36.42
63321;BME280;49449;48.800;9.534;2023-01-29T13:43:19;99454.28;;;4.27;34.10
63321;BME280;49449;48.800;9.534;2023-01-29T13:45:49;99466.88;;;4.23;35.38
63321;BME280;49449;48.800;9.534;2023-01-29T13:48:22;99461.94;;;3.95;32.91